createdAt,value
2018-04-13T00:00:22.956Z,5.85
2018-04-13T00:02:52.323Z,4.93
2018-04-13T00:05:21.451Z,4.72
2018-04-13T00:07:50.468Z,5.45
2018-04-13T00:10:19.506Z,4.40
2018-04-13T00:12:48.566Z,4.95
2018-04-13T00:15:17.603Z,5.97
2018-04-13T00:17:48.063Z,4.75
2018-04-13T00:20:17.963Z,5.30
2018-04-13T00:22:47.007Z,5.68
2018-04-13T00:25:16.148Z,5.53
2018-04-13T00:27:45.227Z,5.18
2018-04-13T00:30:14.422Z,4.87
2018-04-13T00:32:43.579Z,6.05
2018-04-13T00:35:21.000Z,5.47
2018-04-13T00:37:50.205Z,5.30
2018-04-13T00:40:19.232Z,5.00
2018-04-13T00:42:48.228Z,6.18
2018-04-13T00:45:17.349Z,6.00
2018-04-13T00:47:46.401Z,5.82
2018-04-13T00:50:15.511Z,6.47
2018-04-13T00:52:53.678Z,5.62
2018-04-13T00:55:22.745Z,6.50
2018-04-13T00:57:51.792Z,6.03
2018-04-13T01:00:23.248Z,6.50
2018-04-13T01:02:52.409Z,6.53
2018-04-13T01:05:21.512Z,6.90
2018-04-13T01:07:54.665Z,7.75
2018-04-13T01:10:23.789Z,7.07
2018-04-13T01:12:53.065Z,7.20
2018-04-13T01:15:22.436Z,6.90
2018-04-13T01:17:51.471Z,6.60
2018-04-13T01:20:20.790Z,6.05
2018-04-13T01:22:49.960Z,7.28
2018-04-13T01:25:19.389Z,6.05
2018-04-13T01:27:48.473Z,6.22
2018-04-13T01:30:17.716Z,6.22
2018-04-13T01:32:46.822Z,6.85
2018-04-13T01:35:16.610Z,6.28
2018-04-13T01:37:46.155Z,6.80
2018-04-13T01:40:15.180Z,6.95
2018-04-13T01:42:44.333Z,7.37
2018-04-13T01:45:15.397Z,6.65
2018-04-13T01:47:44.717Z,6.45
2018-04-13T01:53:12.985Z,7.18
2018-04-13T01:55:42.008Z,7.45
2018-04-13T01:58:11.521Z,7.35
2018-04-13T02:00:40.547Z,6.70
2018-04-13T02:03:09.610Z,7.18
2018-04-13T02:05:39.118Z,6.97
2018-04-13T02:08:09.862Z,7.87
2018-04-13T02:10:40.766Z,7.37
2018-04-13T02:13:11.104Z,7.57
2018-04-13T02:15:40.520Z,8.18
2018-04-13T02:18:09.528Z,7.80
2018-04-13T02:20:38.885Z,7.10
2018-04-13T02:23:09.063Z,7.75
2018-04-13T02:25:38.212Z,7.78
2018-04-13T02:28:08.248Z,7.10
2018-04-13T02:30:39.275Z,8.23
2018-04-13T02:33:08.221Z,7.57
2018-04-13T02:35:38.702Z,9.30
2018-04-13T02:38:09.806Z,9.18
2018-04-13T02:40:38.732Z,8.30
2018-04-13T02:43:07.691Z,9.20
2018-04-13T02:45:36.693Z,9.65
2018-04-13T02:48:05.630Z,8.88
2018-04-13T02:50:34.572Z,8.98
2018-04-13T02:53:05.792Z,8.25
2018-04-13T02:55:34.696Z,8.68
2018-04-13T02:58:03.623Z,8.23
2018-04-13T03:00:32.760Z,9.02
2018-04-13T03:03:01.983Z,9.80
2018-04-13T03:05:30.919Z,9.98
2018-04-13T03:08:01.554Z,8.65
2018-04-13T03:10:31.259Z,9.40
2018-04-13T03:13:00.195Z,8.82
2018-04-13T03:15:29.251Z,9.55
2018-04-13T03:17:58.484Z,9.73
2018-04-13T03:20:31.078Z,10.68
2018-04-13T03:23:00.281Z,9.23
2018-04-13T03:25:29.318Z,8.18
2018-04-13T03:27:58.256Z,8.82
2018-04-13T03:30:27.187Z,9.15
2018-04-13T03:32:56.141Z,9.88
2018-04-13T03:35:25.559Z,9.13
2018-04-13T03:37:54.463Z,8.30
2018-04-13T03:40:23.425Z,10.23
2018-04-13T03:42:53.545Z,9.45
2018-04-13T03:45:22.798Z,11.65
2018-04-13T03:47:51.726Z,9.80
2018-04-13T03:50:22.281Z,11.07
2018-04-13T03:52:51.466Z,12.27
2018-04-13T03:55:20.390Z,9.57
2018-04-13T03:57:49.302Z,12.00
2018-04-13T04:00:18.235Z,9.68
2018-04-13T04:02:47.264Z,9.93
2018-04-13T04:05:16.343Z,8.85
2018-04-13T04:07:45.790Z,8.48
2018-04-13T04:10:14.637Z,8.52
2018-04-13T04:12:45.064Z,10.32
2018-04-13T04:15:14.146Z,10.60
2018-04-13T04:17:43.954Z,10.73
2018-04-13T04:24:31.059Z,11.12
2018-04-13T04:27:00.027Z,11.52
2018-04-13T04:29:29.143Z,12.15
2018-04-13T04:31:58.210Z,12.15
2018-04-13T04:34:27.477Z,11.48
2018-04-13T04:36:58.339Z,12.52
2018-04-13T04:39:27.268Z,11.65
2018-04-13T04:41:56.192Z,10.10
2018-04-13T04:44:25.184Z,10.70
2018-04-13T04:46:54.730Z,10.55
2018-04-13T04:49:23.731Z,12.35
2018-04-13T04:51:53.175Z,12.25
2018-04-13T04:54:22.290Z,11.98
2018-04-13T04:56:51.283Z,10.90
2018-04-13T04:59:20.405Z,10.70
2018-04-13T05:01:49.474Z,10.20
2018-04-13T05:04:18.389Z,12.95
2018-04-13T05:06:47.509Z,11.25
2018-04-13T05:09:16.458Z,10.30
2018-04-13T05:11:46.490Z,11.75
2018-04-13T05:14:15.462Z,10.00
2018-04-13T05:16:45.097Z,13.13
2018-04-13T05:19:14.045Z,11.85
2018-04-13T05:21:44.438Z,11.95
2018-04-13T05:24:13.487Z,9.82
2018-04-13T05:26:59.946Z,9.00
2018-04-13T05:29:29.164Z,9.20
2018-04-13T05:31:58.113Z,9.27
2018-04-13T05:34:27.007Z,10.05
2018-04-13T05:36:55.975Z,10.23
2018-04-13T05:39:25.411Z,11.95
2018-04-13T05:41:54.651Z,11.48
2018-04-13T05:44:23.641Z,9.60
2018-04-13T05:46:52.575Z,10.52
2018-04-13T05:49:21.578Z,10.90
2018-04-13T05:51:51.312Z,10.23
2018-04-13T05:54:20.222Z,10.23
2018-04-13T05:56:49.269Z,9.40
2018-04-13T05:59:18.572Z,13.02
2018-04-13T06:01:47.564Z,11.35
2018-04-13T06:04:17.501Z,13.65
2018-04-13T06:06:46.600Z,10.90
2018-04-13T06:09:15.749Z,12.98
2018-04-13T06:11:44.766Z,13.60
2018-04-13T06:14:13.809Z,12.15
2018-04-13T06:16:43.872Z,12.60
2018-04-13T06:19:15.116Z,11.57
2018-04-13T06:21:46.143Z,11.77
2018-04-13T06:24:15.245Z,10.68
2018-04-13T06:26:44.209Z,9.63
2018-04-13T06:29:13.513Z,10.27
2018-04-13T06:31:42.596Z,8.60
2018-04-13T06:34:11.552Z,10.25
2018-04-13T06:36:40.686Z,13.13
2018-04-13T06:39:09.699Z,10.20
2018-04-13T06:41:38.627Z,13.32
2018-04-13T06:44:07.713Z,11.30
2018-04-13T06:46:36.884Z,10.52
2018-04-13T06:49:05.755Z,10.38
2018-04-13T06:51:34.658Z,9.90
2018-04-13T06:54:03.558Z,10.60
2018-04-13T06:56:32.823Z,10.73
2018-04-13T06:59:02.281Z,11.52
2018-04-13T07:01:31.311Z,11.70
2018-04-13T07:04:00.382Z,11.95
2018-04-13T07:06:29.932Z,10.77
2018-04-13T07:08:59.038Z,12.35
2018-04-13T07:11:28.386Z,11.68
2018-04-13T07:13:57.292Z,11.38
2018-04-13T07:16:26.138Z,10.68
2018-04-13T07:18:55.881Z,12.37
2018-04-13T07:21:25.064Z,11.95
2018-04-13T07:23:53.995Z,9.77
2018-04-13T07:26:23.049Z,9.60
2018-04-13T07:28:52.276Z,12.20
2018-04-13T07:31:21.421Z,11.07
2018-04-13T07:33:50.341Z,11.30
2018-04-13T07:36:19.246Z,11.73
2018-04-13T07:38:48.453Z,11.63
2018-04-13T07:41:17.421Z,8.77
2018-04-13T07:43:46.301Z,11.25
2018-04-13T07:46:15.400Z,11.23
2018-04-13T07:48:44.375Z,11.35
2018-04-13T07:51:13.257Z,10.75
2018-04-13T07:53:42.623Z,10.68
2018-04-13T07:56:14.933Z,9.02
2018-04-13T07:58:43.983Z,11.32
2018-04-13T08:01:13.026Z,10.15
2018-04-13T08:03:41.972Z,7.43
2018-04-13T08:06:11.416Z,9.77
2018-04-13T08:08:40.493Z,10.30
2018-04-13T08:11:09.412Z,9.88
2018-04-13T08:13:38.379Z,8.38
2018-04-13T08:16:07.348Z,8.43
2018-04-13T08:18:36.281Z,9.77
2018-04-13T08:21:07.863Z,9.20
2018-04-13T08:23:36.744Z,8.63
2018-04-13T08:26:05.642Z,8.48
2018-04-13T08:28:38.356Z,8.90
2018-04-13T08:31:07.298Z,7.78
2018-04-13T08:33:36.197Z,8.25
2018-04-13T08:36:05.247Z,8.98
2018-04-13T08:38:34.433Z,10.13
2018-04-13T08:41:03.419Z,9.32
2018-04-13T08:43:32.472Z,8.63
2018-04-13T08:46:02.640Z,8.48
2018-04-13T08:48:31.569Z,8.40
2018-04-13T08:51:00.506Z,8.82
2018-04-13T08:53:29.477Z,7.72
2018-04-13T08:55:58.353Z,7.85
2018-04-13T08:58:27.258Z,7.93
2018-04-13T09:00:56.180Z,7.10
2018-04-13T09:03:25.387Z,7.97
2018-04-13T09:05:54.491Z,7.15
2018-04-13T09:08:23.456Z,6.12
2018-04-13T09:10:52.560Z,9.43
2018-04-13T09:13:21.868Z,7.70
2018-04-13T09:15:52.105Z,5.93
2018-04-13T09:18:21.053Z,6.60
2018-04-13T09:20:50.918Z,6.30
2018-04-13T09:23:19.838Z,7.65
2018-04-13T09:25:48.746Z,6.05
2018-04-13T09:28:19.289Z,5.20
2018-04-13T09:30:49.600Z,4.35
2018-04-13T09:33:18.492Z,3.53
2018-04-13T09:35:47.416Z,3.08
2018-04-13T09:38:16.372Z,2.62
2018-04-13T09:40:45.422Z,2.42
2018-04-13T09:43:14.368Z,2.37
2018-04-13T09:45:44.347Z,2.12
2018-04-13T09:48:13.247Z,1.92
2018-04-13T09:50:42.445Z,1.95
2018-04-13T09:53:11.406Z,2.10
2018-04-13T09:55:40.417Z,1.80
2018-04-13T09:58:09.462Z,1.80
2018-04-13T10:00:39.174Z,1.90
2018-04-13T10:03:13.384Z,2.08
2018-04-13T10:05:42.436Z,1.45
2018-04-13T10:08:12.085Z,1.42
2018-04-13T10:10:41.130Z,2.05
2018-04-13T10:13:10.107Z,1.50
2018-04-13T10:15:40.651Z,1.90
2018-04-13T10:18:09.765Z,1.58
2018-04-13T10:20:39.165Z,2.10
2018-04-13T10:23:11.871Z,1.70
2018-04-13T10:25:41.007Z,2.00
2018-04-13T10:28:10.053Z,2.10
2018-04-13T10:30:41.694Z,2.25
2018-04-13T10:33:11.318Z,2.87
2018-04-13T10:35:40.367Z,3.03
2018-04-13T10:38:11.023Z,2.92
2018-04-13T10:40:40.064Z,2.72
2018-04-13T10:43:09.367Z,3.47
2018-04-13T10:45:39.944Z,3.17
2018-04-13T10:48:08.909Z,3.92
2018-04-13T10:50:40.565Z,3.67
2018-04-13T10:53:10.327Z,5.50
2018-04-13T10:55:39.716Z,4.28
2018-04-13T10:58:08.872Z,3.65
2018-04-13T11:00:38.067Z,4.40
2018-04-13T11:03:07.151Z,4.43
2018-04-13T11:05:36.040Z,5.30
2018-04-13T11:08:04.961Z,4.28
2018-04-13T11:10:34.389Z,4.68
2018-04-13T11:13:03.347Z,5.75
2018-04-13T11:15:33.403Z,5.85
2018-04-13T11:18:02.948Z,6.28
2018-04-13T11:20:31.874Z,5.28
2018-04-13T11:23:01.106Z,5.75
2018-04-13T11:25:30.541Z,5.80
2018-04-13T11:27:59.899Z,6.18
2018-04-13T11:30:29.476Z,5.25
2018-04-13T11:32:58.831Z,5.03
2018-04-13T11:35:27.837Z,5.45
2018-04-13T11:37:56.884Z,5.82
2018-04-13T11:40:26.874Z,4.90
2018-04-13T11:42:57.135Z,5.18
2018-04-13T11:45:26.233Z,5.68
2018-04-13T11:47:55.263Z,4.47
2018-04-13T11:50:24.281Z,6.25
2018-04-13T11:52:53.638Z,4.60
2018-04-13T11:55:23.461Z,4.87
2018-04-13T11:57:52.384Z,4.10
2018-04-13T12:00:22.413Z,4.90
2018-04-13T12:02:53.059Z,5.35
2018-04-13T12:05:21.982Z,4.45
2018-04-13T12:07:50.988Z,4.80
2018-04-13T12:10:22.575Z,3.70
2018-04-13T12:12:52.264Z,4.47
2018-04-13T12:15:21.302Z,4.62
2018-04-13T12:17:50.572Z,3.50
2018-04-13T12:20:19.745Z,3.97
2018-04-13T12:22:48.827Z,3.60
2018-04-13T12:25:18.770Z,3.08
2018-04-13T12:27:48.084Z,3.08
2018-04-13T12:30:17.243Z,3.30
2018-04-13T12:32:47.307Z,2.60
2018-04-13T12:35:19.972Z,3.95
2018-04-13T12:37:50.068Z,3.75
2018-04-13T12:40:20.081Z,3.65
2018-04-13T12:42:49.678Z,3.20
2018-04-13T12:45:20.017Z,3.03
2018-04-13T12:47:49.240Z,3.20
2018-04-13T12:50:19.992Z,3.20
2018-04-13T12:52:49.050Z,3.42
2018-04-13T12:55:22.742Z,3.75
2018-04-13T12:57:51.882Z,2.90
2018-04-13T13:00:21.072Z,4.93
2018-04-13T13:02:51.975Z,3.80
2018-04-13T13:05:24.134Z,3.33
2018-04-13T13:07:53.309Z,3.17
2018-04-13T13:10:22.712Z,4.28
2018-04-13T13:12:52.716Z,3.55
2018-04-13T13:15:22.132Z,4.25
2018-04-13T13:17:51.334Z,3.28
2018-04-13T13:20:21.855Z,3.30
2018-04-13T13:22:50.979Z,2.97
2018-04-13T13:25:20.022Z,4.07
2018-04-13T13:27:49.216Z,3.33
2018-04-13T13:30:18.155Z,3.58
2018-04-13T13:32:47.364Z,3.70
2018-04-13T13:35:17.021Z,4.15
2018-04-13T13:37:46.003Z,3.53
2018-04-13T13:40:15.445Z,4.05
2018-04-13T13:42:44.713Z,3.45
2018-04-13T13:45:13.699Z,3.33
2018-04-13T13:47:42.693Z,4.05
2018-04-13T13:50:13.012Z,3.30
2018-04-13T13:52:42.966Z,4.03
2018-04-13T13:55:12.225Z,3.53
2018-04-13T13:57:41.595Z,3.60
2018-04-13T14:00:10.561Z,4.25
2018-04-13T14:02:39.669Z,4.30
2018-04-13T14:05:14.326Z,4.15
2018-04-13T14:07:43.366Z,4.25
2018-04-13T14:10:12.373Z,5.80
2018-04-13T14:12:41.676Z,4.85
2018-04-13T14:15:10.682Z,5.43
2018-04-13T14:17:39.972Z,4.82
2018-04-13T14:20:09.600Z,3.62
2018-04-13T14:22:39.686Z,4.35
2018-04-13T14:25:08.631Z,3.65
2018-04-13T14:27:38.137Z,2.87
2018-04-13T14:30:07.187Z,3.37
2018-04-13T14:32:36.361Z,2.70
2018-04-13T14:35:07.299Z,3.15
2018-04-13T14:37:45.212Z,3.55
2018-04-13T14:40:14.625Z,3.05
2018-04-13T14:42:46.583Z,2.40
2018-04-13T14:45:15.595Z,2.53
2018-04-13T14:47:44.753Z,2.28
2018-04-13T14:50:16.888Z,2.22
2018-04-13T14:52:47.631Z,2.50
2018-04-13T14:55:16.649Z,2.72
2018-04-13T14:57:45.946Z,2.53
2018-04-13T15:00:15.345Z,2.90
2018-04-13T15:02:45.977Z,2.53
2018-04-13T15:05:16.191Z,2.50
2018-04-13T15:07:45.174Z,2.70
2018-04-13T15:10:16.340Z,2.10
2018-04-13T15:12:45.669Z,2.20
2018-04-13T15:15:14.835Z,2.83
2018-04-13T15:17:46.229Z,2.20
2018-04-13T15:20:15.863Z,3.22
2018-04-13T15:22:45.099Z,2.12
2018-04-13T15:32:21.709Z,2.08
2018-04-13T15:34:50.922Z,2.83
2018-04-13T15:37:19.908Z,3.62
2018-04-13T15:39:49.231Z,2.60
2018-04-13T15:42:19.534Z,1.95
2018-04-13T15:44:48.522Z,2.67
2018-04-13T15:47:17.643Z,2.08
2018-04-13T15:49:46.706Z,2.30
2018-04-13T15:52:16.303Z,2.72
2018-04-13T15:54:45.389Z,2.37
